Hlavní strana
METAR-TAF:

METAR-TAF

Letiště :

Augsburg, Německo

zeměpisná šířka: 48-26N, zeměpisná délka: 010-56E, výška: 461 m

Aktuální stav počasí

Zpráva byla vytvořena před 38 minutami, v 17:20 UTC
Severovýchodní vítr 3 kt
Teplota -2°C
Vlhkost vzduchu 86%
Tlak 1018 hPa
Viditelnost 10 km a více
Žádná oblačnost pod 1500 m, nevyskytují se cumulonimby.

METAR: EDMA 181720Z 05003KT CAVOK M02/M04 Q1018

Čas: 18:58 (17:58 UTC)

Předpověď počasí

Zpráva byla vytvořena před 58 minutami, v 17:00 UTC
Předpověď platná od 18 v 18 UTC do 19 v 03 UTC
Východoseverovýchodní vítr 5 kt
Viditelnost 10 km a více
Žádná oblačnost pod 1500 m, nevyskytují se cumulonimby.
Změna
od 19 v 01 UTC do 19 v 03 UTC
Viditelnost: 4000 m
Zataženo ve výšce 800 ft
kouřmo

TAF: EDMA 181700Z 1818/1903 06005KT CAVOK BECMG 1901/1903 4000 BR OVC008

Stav a předpovědi počasí z více než 4 000 letišť (zprávy METAR a TAF).

Červené a žluté tečky na mapě představují dostupné meteorologické stanice.

Když kurzor umístíte na tečku, zobrazí se název stanice.

Pak kliknutím zobrazíte stav a předpověď počasí.

Chcete-li změnit mapu, kliknutím na zelené tlačítko se znaménkem +mapu přiblížíte, kliknutím na zelené tlačítko se znaménkem – mapu oddálíte a kliknutím na zelené šipky přejdete na sousední mapy.


METAR-TAF: